METAR AND TAF INFORMATION
METAR FOR LSZA
ADDS - METARS form results

(0039 UTC 24 January 2019)
Data provider http://aviationweather.gov/metar/data/
 
METAR text: LSZA 240020Z AUTO VRB01KT 3500 BR NCD M01/M02 Q0997
Conditions at: LSZA (LUGANO (PVT/AUT), CH) observed 0020 UTC 24 January 2019
Temperature: -1.0°C (30°F)
Dewpoint: -2.0°C (28°F) [RH = 93%]
Pressure (altimeter): 29.44 inches Hg (997.0 mb)
Winds: variable direction winds at 1 MPH (1 knots; 0.5 m/s)
Visibility: 2.17 miles (3.49 km)
Ceiling: at least 12,000 feet AGL
Clouds: sky clear below 12,000 feet AGL
Weather: BR  (mist)

METAR text: LSZA 232350Z AUTO 03002KT 4700 BR FEW100 M00/M02 Q0997
Conditions at: LSZA (LUGANO (PVT/AUT), CH) observed 2350 UTC 23 January 2019
Temperature: 0.0°C (32°F)
Dewpoint: -2.0°C (28°F) [RH = 86%]
Pressure (altimeter): 29.44 inches Hg (997.0 mb)
Winds: from the NNE (30 degrees) at 2 MPH (2 knots; 1.0 m/s)
Visibility: 2.92 miles (4.70 km)
Ceiling: at least 12,000 feet AGL
Clouds: few clouds at 10000 feet AGL
Weather: BR  (mist)

Forecast for: LSZA (LUGANO (PVT/AUT), CH)
Text: TAF LSZA 231425Z 2315/2324 VRB03KT 9999 SCT020 BKN040
Forecast period: 1500 UTC 23 January 2019 to 0000 UTC 24 January 2019
Forecast type: FROM: standard forecast or significant change
Winds: variable direction winds at 3 MPH (3 knots; 1.5 m/s)
Visibility: 6 or more miles 10+ km)
Ceiling: 4000 feet AGL
Clouds: scattered clouds at 2000 feet AGL
broken clouds at 4000 feet AGL
Weather: no significant weather forecast for this period

AIRPORT MAP

RUNWAY INFORMATION
Runway 01 Runway length 4429 ft Runway width 98 ft
Runway elevation 896 ft Runway displaced threshold 361 ft Runway heading 19
Runway 19 Runway length 4429 ft Runway width 98 ft
Runway elevation 915 ft Runway displaced threshold 672 ft Runway heading 199

AIRPORT FREQUENCIES
Type ATIS Name ATIS Frequency 121.175 MHZ
Type GND Name GND Frequency 121.775 MHZ
Type TWR Name TWR Frequency 120.25 MHZ

AIRPORT NEAR NAVIGATION AIDS